If you wish to contribute or participate in the discussions about articles you are invited to join SKYbrary as a registered user

 Actions

Lannion-Côte de Granit Airport

From SKYbrary Wiki

LFRO
Airport
ICAO: LFRO – IATA: LAI
Summary
Name Lannion-Côte de Granit Airport
Region Europe
Territory France FR.gif
Location , Bretagne
Serving Lannion
Elevation 88.392 m
290 ft
290 ft88.392 m
Type medium airport
Coordinates 48° 45' 15.76" N, 3° 28' 17.96" W
Runways
Designator Length Width Surface ROPS
11/29 1700 m5,577.428 ft
45 m147.638 ft
ASP yes/yes


METAR
Observation LFRO 111030Z AUTO 07008KT 360V110 9999 BKN027 10/03 Q1024 NOSIG
Station Lannion / Servel
Date/Time 11 April 2019 10:30:00
Wind direction 70°
Wind speed 08 kts
Lowest cloud amount broken clouds
Temperature 10°C
Dew point 3°C
Humidity 61%
QNH 1024 hPa
Weather condition n/a